Time;durP1;ratioP1;P1;durP2;ratioP2;P2;SDS_P1;SDS_P2;PMS_P1;PMS_P2;Temp;Humidity;BMP_temperature;BMP_pressure;BME280_temperature;BME280_humidity;BME280_pressure;Samples;Min_cycle;Max_cycle;Signal;HPM_P1;HPM_P2
2022/05/04 00:02:22;;;;;;;11.93;7.22;;;18.90;66.00;;;;;;5034321;28;20116;-66
2022/05/04 00:04:48;;;;;;;13.07;7.28;;;18.90;66.10;;;;;;5055404;28;20108;-66
2022/05/04 00:07:13;;;;;;;13.10;7.22;;;18.90;66.10;;;;;;5053171;28;20044;-66
2022/05/04 00:09:39;;;;;;;14.15;7.15;;;18.80;66.10;;;;;;5047522;28;20021;-66
2022/05/04 00:12:05;;;;;;;12.43;7.22;;;18.90;66.20;;;;;;5039789;28;20032;-66
2022/05/04 00:14:31;;;;;;;11.57;7.05;;;18.80;66.20;;;;;;5034552;28;20116;-66
2022/05/04 00:16:56;;;;;;;12.48;7.18;;;18.80;66.30;;;;;;5040686;28;20466;-66
2022/05/04 00:19:22;;;;;;;12.65;6.88;;;18.80;66.30;;;;;;5046412;28;20707;-66
2022/05/04 00:21:47;;;;;;;12.23;7.10;;;18.80;66.30;;;;;;5040513;28;20387;-65
2022/05/04 00:24:14;;;;;;;12.18;6.90;;;18.80;66.30;;;;;;5033748;28;20520;-66
2022/05/04 00:26:40;;;;;;;11.45;6.65;;;18.80;66.30;;;;;;5032071;28;20061;-66
2022/05/04 00:29:05;;;;;;;10.80;6.65;;;18.80;66.40;;;;;;5039044;28;20069;-66
2022/05/04 00:31:31;;;;;;;10.90;6.63;;;18.80;66.40;;;;;;5042805;28;20021;-66
2022/05/04 00:33:57;;;;;;;11.07;6.72;;;18.80;66.50;;;;;;5041405;28;20090;-66
2022/05/04 00:36:22;;;;;;;11.00;6.30;;;18.70;66.50;;;;;;5040730;28;20385;-66
2022/05/04 00:38:48;;;;;;;10.77;6.72;;;18.70;66.50;;;;;;5041304;28;20463;-66
2022/05/04 00:41:13;;;;;;;10.80;6.45;;;18.70;66.50;;;;;;5046415;28;20521;-66
2022/05/04 00:43:39;;;;;;;10.93;6.88;;;18.70;66.50;;;;;;5040131;28;20030;-66
2022/05/04 00:46:05;;;;;;;11.15;6.60;;;18.70;66.50;;;;;;5043675;28;20057;-66
2022/05/04 00:48:30;;;;;;;12.10;6.90;;;18.70;66.50;;;;;;5035572;28;20482;-65
2022/05/04 00:50:56;;;;;;;10.85;6.32;;;18.70;66.60;;;;;;5035087;28;20511;-66
2022/05/04 00:53:22;;;;;;;11.38;6.80;;;18.70;66.50;;;;;;5039578;28;20033;-66
2022/05/04 00:55:47;;;;;;;10.80;7.03;;;18.70;66.60;;;;;;5040578;28;20032;-65
2022/05/04 01:00:59;;;;;;;11.35;6.22;;;18.60;66.60;;;;;;5046891;28;20063;-66
2022/05/04 01:03:25;;;;;;;9.55;5.78;;;18.60;66.60;;;;;;5042431;28;20452;-66
2022/05/04 01:05:50;;;;;;;10.88;6.10;;;18.60;66.60;;;;;;5040757;28;20025;-66
2022/05/04 01:08:16;;;;;;;10.55;6.50;;;18.60;66.60;;;;;;5035659;28;20033;-66
2022/05/04 01:10:42;;;;;;;11.05;6.00;;;18.60;66.60;;;;;;5046020;28;20017;-66
2022/05/04 01:13:08;;;;;;;10.45;6.05;;;18.60;66.70;;;;;;5042642;28;20033;-66
2022/05/04 01:15:33;;;;;;;10.90;6.10;;;18.60;66.70;;;;;;5040312;28;20036;-66
2022/05/04 01:17:59;;;;;;;10.48;6.30;;;18.60;66.70;;;;;;5035928;28;20386;-66
2022/05/04 01:20:25;;;;;;;11.13;6.65;;;18.60;66.80;;;;;;5034042;28;20030;-66
2022/05/04 01:22:50;;;;;;;11.32;6.78;;;18.60;66.80;;;;;;5040132;28;20030;-66
2022/05/04 01:25:16;;;;;;;11.18;6.10;;;18.60;66.70;;;;;;5044696;28;20044;-66
2022/05/04 01:27:42;;;;;;;12.00;5.93;;;18.60;66.80;;;;;;5040474;28;20405;-67
2022/05/04 01:30:08;;;;;;;10.80;6.03;;;18.50;66.80;;;;;;5030853;28;20500;-67
2022/05/04 01:32:33;;;;;;;10.88;6.40;;;18.60;66.90;;;;;;5032028;28;20033;-66
2022/05/04 01:34:59;;;;;;;10.75;6.05;;;18.50;66.90;;;;;;5047772;28;20509;-67
2022/05/04 01:37:25;;;;;;;10.88;6.10;;;18.50;66.90;;;;;;5041028;28;20461;-66
2022/05/04 01:39:50;;;;;;;10.25;6.25;;;18.50;66.90;;;;;;5040974;28;20021;-66
2022/05/04 01:42:16;;;;;;;9.68;6.00;;;18.50;66.80;;;;;;5038187;28;20525;-67
2022/05/04 01:44:46;;;;;;;9.68;5.88;;;18.50;68.00;;;;;;5041916;28;20541;-67
2022/05/04 01:47:12;;;;;;;9.48;5.60;;;18.50;66.80;;;;;;5038060;28;20038;-66
2022/05/04 01:49:37;;;;;;;11.38;6.03;;;18.50;67.00;;;;;;5070568;28;20476;-66
2022/05/04 01:52:04;;;;;;;10.18;6.20;;;18.50;66.80;;;;;;5037389;28;20033;-66
2022/05/04 01:54:29;;;;;;;10.82;5.55;;;18.50;66.80;;;;;;5044375;28;20067;-67
2022/05/04 01:56:55;;;;;;;10.15;5.78;;;18.50;66.80;;;;;;5030578;28;20034;-67
2022/05/04 01:59:20;;;;;;;9.65;6.00;;;18.50;66.90;;;;;;5034769;28;20026;-67
2022/05/04 02:01:46;;;;;;;12.10;6.10;;;18.40;66.90;;;;;;5039306;28;20064;-67
2022/05/04 02:04:12;;;;;;;9.85;5.93;;;18.40;66.90;;;;;;5043864;28;20040;-66
2022/05/04 02:06:38;;;;;;;9.63;5.65;;;18.40;66.90;;;;;;5040110;28;20107;-66
2022/05/04 02:09:04;;;;;;;10.50;6.10;;;18.40;66.80;;;;;;5043751;28;20112;-67
2022/05/04 02:11:32;;;;;;;10.70;5.75;;;18.40;66.90;;;;;;5039379;28;20029;-67
2022/05/04 02:13:58;;;;;;;9.40;5.82;;;18.40;66.90;;;;;;5066879;28;20088;-67
2022/05/04 02:16:23;;;;;;;9.32;5.63;;;18.40;66.80;;;;;;5044311;28;20133;-67
2022/05/04 02:18:49;;;;;;;10.48;5.65;;;18.40;66.90;;;;;;5038953;28;20585;-67
2022/05/04 02:21:15;;;;;;;11.00;5.90;;;18.40;66.90;;;;;;5030538;28;20029;-67
2022/05/04 02:23:40;;;;;;;9.35;5.43;;;18.40;66.90;;;;;;5029985;28;20053;-67
2022/05/04 02:26:06;;;;;;;9.75;5.40;;;18.40;66.90;;;;;;5037665;28;20116;-67
2022/05/04 02:28:32;;;;;;;9.63;5.32;;;18.40;67.00;;;;;;5039152;28;20064;-66
2022/05/04 02:30:57;;;;;;;11.00;5.90;;;18.40;66.90;;;;;;5047201;28;20056;-67
2022/05/04 02:33:23;;;;;;;9.52;5.63;;;18.40;66.90;;;;;;5032883;28;20056;-67
2022/05/04 02:38:33;;;;;;;8.83;5.30;;;18.40;66.90;;;;;;5030373;28;23177;-66
2022/05/04 02:40:59;;;;;;;9.02;5.18;;;18.30;66.80;;;;;;5039049;28;20072;-67
2022/05/04 02:43:26;;;;;;;9.98;5.72;;;18.30;66.80;;;;;;5045805;28;20102;-67
2022/05/04 02:45:52;;;;;;;10.80;5.60;;;18.30;66.90;;;;;;5045020;28;20127;-66
2022/05/04 02:48:17;;;;;;;8.85;5.28;;;18.30;66.90;;;;;;5036913;28;20513;-67
2022/05/04 02:50:43;;;;;;;9.13;5.32;;;18.30;66.80;;;;;;5032488;28;20032;-66
2022/05/04 02:53:09;;;;;;;8.90;5.20;;;18.30;66.90;;;;;;5046719;28;20048;-66
2022/05/04 02:55:34;;;;;;;9.80;5.68;;;18.30;66.90;;;;;;5041856;28;20017;-67
2022/05/04 02:58:00;;;;;;;8.90;5.28;;;18.30;67.00;;;;;;5044979;28;20482;-66
2022/05/04 03:00:26;;;;;;;8.75;5.07;;;18.30;66.90;;;;;;5038233;28;20040;-67
2022/05/04 03:02:53;;;;;;;9.25;4.75;;;18.20;66.90;;;;;;5040996;28;20025;-67
2022/05/04 03:05:19;;;;;;;9.70;5.10;;;18.20;66.90;;;;;;5041195;28;20041;-67
2022/05/04 03:07:44;;;;;;;8.80;5.13;;;18.30;66.80;;;;;;5037661;28;20350;-67
2022/05/04 03:10:10;;;;;;;9.98;5.47;;;18.20;66.90;;;;;;5044073;28;20025;-67
2022/05/04 03:12:36;;;;;;;10.10;5.20;;;18.20;66.90;;;;;;5037795;28;20515;-67
2022/05/04 03:15:02;;;;;;;8.63;5.15;;;18.20;66.90;;;;;;5033712;28;20017;-67
2022/05/04 03:17:28;;;;;;;8.77;5.07;;;18.20;67.00;;;;;;5037918;28;20060;-67
2022/05/04 03:19:54;;;;;;;8.63;5.07;;;18.20;67.00;;;;;;5044647;28;20474;-67
2022/05/04 03:22:20;;;;;;;8.45;5.25;;;18.20;66.90;;;;;;5036597;28;20028;-67
2022/05/04 03:24:46;;;;;;;8.02;4.97;;;18.20;66.90;;;;;;5040829;28;20029;-66
2022/05/04 03:27:11;;;;;;;8.65;4.93;;;18.20;67.00;;;;;;5048562;28;20037;-66
2022/05/04 03:29:37;;;;;;;8.82;5.40;;;18.20;67.00;;;;;;5040893;28;20033;-67
2022/05/04 03:32:03;;;;;;;8.25;4.88;;;18.20;67.10;;;;;;5044708;28;20037;-66
2022/05/04 03:34:29;;;;;;;7.93;4.60;;;18.10;67.00;;;;;;5043787;28;20067;-66
2022/05/04 03:36:55;;;;;;;8.63;4.70;;;18.20;66.90;;;;;;5042662;28;20032;-67
2022/05/04 03:39:21;;;;;;;8.35;4.90;;;18.20;66.90;;;;;;5042214;28;20024;-67
2022/05/04 03:41:46;;;;;;;8.45;4.72;;;18.10;67.00;;;;;;5034323;28;20114;-67
2022/05/04 03:44:12;;;;;;;8.43;5.13;;;18.20;67.10;;;;;;5047951;28;20056;-67
2022/05/04 03:46:45;;;;;;;9.02;4.78;;;18.10;67.10;;;;;;5046346;28;20029;-67
2022/05/04 03:49:11;;;;;;;8.48;4.78;;;18.10;67.20;;;;;;5043076;28;20052;-67
2022/05/04 03:51:36;;;;;;;8.27;4.68;;;18.10;67.20;;;;;;5041740;28;20530;-67
2022/05/04 03:54:02;;;;;;;8.32;4.78;;;18.10;67.20;;;;;;5039918;28;20033;-67
2022/05/04 03:56:28;;;;;;;8.27;4.95;;;18.10;67.30;;;;;;5044025;28;20025;-65
2022/05/04 03:58:53;;;;;;;7.93;4.90;;;18.10;67.30;;;;;;5040867;28;20051;-67
2022/05/04 04:01:20;;;;;;;8.60;4.70;;;18.10;67.40;;;;;;5048256;28;20375;-67
2022/05/04 04:03:46;;;;;;;9.77;4.95;;;18.10;67.30;;;;;;5041610;28;20032;-67
2022/05/04 04:06:11;;;;;;;10.27;4.95;;;18.10;67.40;;;;;;5035727;28;20079;-67
2022/05/04 04:08:37;;;;;;;8.93;4.60;;;18.10;67.30;;;;;;5032549;28;20045;-67
2022/05/04 04:11:03;;;;;;;9.02;4.80;;;18.00;67.30;;;;;;5044983;28;20018;-67
2022/05/04 04:13:29;;;;;;;8.73;4.90;;;18.00;67.30;;;;;;5044362;28;20184;-67
2022/05/04 04:15:55;;;;;;;9.45;5.03;;;18.00;67.30;;;;;;5039826;28;20112;-67
2022/05/04 04:18:21;;;;;;;9.73;4.90;;;18.00;67.30;;;;;;5042470;28;20036;-67
2022/05/04 04:23:32;;;;;;;9.57;4.72;;;18.00;67.30;;;;;;5046022;28;20402;-67
2022/05/04 04:25:58;;;;;;;8.57;4.75;;;18.00;67.30;;;;;;5046945;28;20452;-67
2022/05/04 04:28:24;;;;;;;8.75;5.10;;;18.00;67.30;;;;;;5036375;28;20061;-67
2022/05/04 04:30:49;;;;;;;9.95;4.95;;;18.00;67.30;;;;;;5041140;28;20029;-67
2022/05/04 04:33:15;;;;;;;7.82;4.82;;;18.00;67.30;;;;;;5037315;28;20508;-67
2022/05/04 04:35:41;;;;;;;9.35;4.55;;;18.00;67.30;;;;;;5037570;28;20021;-67
2022/05/04 04:38:07;;;;;;;8.85;4.93;;;18.00;67.30;;;;;;5037489;28;20029;-67
2022/05/04 04:40:33;;;;;;;7.80;4.53;;;18.00;67.30;;;;;;5038899;28;20536;-67
2022/05/04 04:43:00;;;;;;;8.95;4.75;;;18.00;67.30;;;;;;5041652;28;20041;-67
2022/05/04 04:45:27;;;;;;;8.57;4.50;;;17.90;67.30;;;;;;5037206;28;20394;-67
2022/05/04 04:47:52;;;;;;;7.78;4.47;;;17.90;67.30;;;;;;5035319;28;20156;-67
2022/05/04 04:50:18;;;;;;;8.77;4.47;;;17.90;67.30;;;;;;5044255;28;20708;-67
2022/05/04 04:52:44;;;;;;;8.00;4.63;;;17.90;67.20;;;;;;5042740;28;20033;-67
2022/05/04 04:55:09;;;;;;;9.10;4.65;;;18.00;67.30;;;;;;5039995;28;20407;-67
2022/05/04 04:57:35;;;;;;;7.95;4.25;;;17.90;67.50;;;;;;5040352;28;20460;-67
2022/05/04 05:00:01;;;;;;;10.25;4.55;;;17.90;67.80;;;;;;5038458;28;20107;-67
2022/05/04 05:02:26;;;;;;;7.60;4.22;;;17.90;67.60;;;;;;5032586;28;20458;-68
2022/05/04 05:04:52;;;;;;;8.68;4.45;;;17.90;67.50;;;;;;5044999;28;20030;-68
2022/05/04 05:07:18;;;;;;;8.45;4.43;;;17.90;67.40;;;;;;5036231;28;20131;-67
2022/05/04 05:09:43;;;;;;;8.48;4.80;;;17.90;67.40;;;;;;5039792;28;20074;-68
2022/05/04 05:12:11;;;;;;;8.88;4.25;;;17.90;67.60;;;;;;5041958;28;20025;-66
2022/05/04 05:17:21;;;;;;;11.40;4.78;;;18.00;68.40;;;;;;5052629;28;20039;-62
2022/05/04 05:19:46;;;;;;;11.15;5.38;;;18.00;69.40;;;;;;5055965;28;20477;-64
2022/05/04 05:22:12;;;;;;;10.55;5.00;;;18.00;69.90;;;;;;5041475;28;20863;-65
2022/05/04 05:24:37;;;;;;;14.35;5.25;;;18.00;71.30;;;;;;5039113;28;20442;-64
2022/05/04 05:27:03;;;;;;;9.93;5.07;;;18.00;70.90;;;;;;5040117;28;20064;-63
2022/05/04 05:29:29;;;;;;;11.00;4.97;;;18.00;69.70;;;;;;5039837;28;20021;-62
2022/05/04 05:31:55;;;;;;;11.15;5.07;;;18.00;70.20;;;;;;5033064;28;20379;-62
2022/05/04 05:34:20;;;;;;;11.90;4.93;;;18.00;69.60;;;;;;5037127;28;20474;-62
2022/05/04 05:36:47;;;;;;;10.02;5.10;;;18.00;69.90;;;;;;5041802;28;20017;-64
2022/05/04 05:39:12;;;;;;;11.57;5.25;;;18.00;69.90;;;;;;5043476;28;20115;-63
2022/05/04 05:41:38;;;;;;;11.52;4.55;;;18.00;70.10;;;;;;5045237;28;20475;-63
2022/05/04 05:44:04;;;;;;;10.50;4.90;;;18.00;69.80;;;;;;5045156;28;21062;-63
2022/05/04 05:46:30;;;;;;;13.07;4.65;;;18.00;69.60;;;;;;5036199;28;20409;-62
2022/05/04 05:48:56;;;;;;;10.90;5.00;;;18.00;69.70;;;;;;5040917;28;20033;-63
2022/05/04 05:51:21;;;;;;;10.45;4.45;;;18.00;69.60;;;;;;5034523;28;20024;-63
2022/05/04 05:53:47;;;;;;;10.60;4.93;;;18.00;69.60;;;;;;5037327;28;20033;-63
2022/05/04 05:56:12;;;;;;;12.27;4.80;;;18.00;69.30;;;;;;5043307;28;20029;-63
2022/05/04 05:58:38;;;;;;;13.73;4.80;;;17.90;69.30;;;;;;5036782;28;20026;-62
2022/05/04 06:01:04;;;;;;;11.20;4.85;;;18.00;69.30;;;;;;5034711;28;20116;-63
2022/05/04 06:03:30;;;;;;;9.80;4.65;;;17.90;69.50;;;;;;5036356;28;20116;-63
2022/05/04 06:05:55;;;;;;;11.25;4.82;;;17.90;69.30;;;;;;5029797;28;20029;-63
2022/05/04 06:08:21;;;;;;;9.95;4.70;;;17.90;69.30;;;;;;5032077;28;20049;-63
2022/05/04 06:10:47;;;;;;;9.48;4.80;;;17.90;69.50;;;;;;5039433;28;20018;-63
2022/05/04 06:13:12;;;;;;;11.73;4.90;;;17.90;69.30;;;;;;5033169;28;20041;-62
2022/05/04 06:15:38;;;;;;;12.02;5.05;;;17.90;69.40;;;;;;5040444;28;20375;-63
2022/05/04 06:18:04;;;;;;;9.18;4.53;;;17.90;69.20;;;;;;5032274;28;20158;-63
2022/05/04 06:20:30;;;;;;;12.38;4.65;;;17.90;69.30;;;;;;5031565;28;20108;-63
2022/05/04 06:22:56;;;;;;;9.63;4.97;;;17.90;69.30;;;;;;5046828;28;20647;-63
2022/05/04 06:25:21;;;;;;;9.48;4.55;;;17.90;69.30;;;;;;5039856;28;20033;-62
2022/05/04 06:27:47;;;;;;;10.63;4.47;;;17.90;69.30;;;;;;5036470;28;20054;-63
2022/05/04 06:35:41;;;;;;;10.77;4.75;;;17.90;69.00;;;;;;5030373;28;20079;-63
2022/05/04 06:38:07;;;;;;;10.95;4.60;;;17.90;69.10;;;;;;5035841;28;20397;-63
2022/05/04 06:40:32;;;;;;;9.88;4.40;;;17.90;69.10;;;;;;5039811;28;20550;-63
2022/05/04 06:42:59;;;;;;;9.65;4.45;;;17.90;69.20;;;;;;5039470;28;20060;-63
2022/05/04 06:45:25;;;;;;;11.57;4.75;;;17.90;69.10;;;;;;5037037;28;20152;-63
2022/05/04 06:47:50;;;;;;;14.32;5.30;;;17.90;68.90;;;;;;5034583;28;20116;-62
2022/05/04 06:50:17;;;;;;;11.43;4.68;;;17.90;68.80;;;;;;5038252;28;20063;-63
2022/05/04 06:52:42;;;;;;;8.82;4.50;;;17.90;68.60;;;;;;5034101;28;20494;-63
2022/05/04 06:55:08;;;;;;;10.70;5.25;;;17.90;68.90;;;;;;5037362;28;20024;-63
2022/05/04 06:57:36;;;;;;;9.00;4.40;;;17.90;68.70;;;;;;5041055;28;20033;-63
2022/05/04 07:00:05;;;;;;;11.02;4.88;;;17.90;68.60;;;;;;5038785;28;20505;-63
2022/05/04 07:02:35;;;;;;;10.65;4.80;;;17.90;68.60;;;;;;5041725;28;20029;-63
2022/05/04 07:05:03;;;;;;;11.48;4.70;;;17.90;68.70;;;;;;5056124;28;20100;-63
2022/05/04 07:07:29;;;;;;;10.50;4.82;;;17.90;68.80;;;;;;5042603;28;20083;-63
2022/05/04 07:09:55;;;;;;;11.85;5.18;;;17.90;68.60;;;;;;5050494;28;20045;-62
2022/05/04 07:12:21;;;;;;;10.93;4.70;;;17.90;68.80;;;;;;5042490;28;20514;-63
2022/05/04 07:14:47;;;;;;;10.73;4.90;;;17.90;68.60;;;;;;5033575;28;22450;-63
2022/05/04 07:17:12;;;;;;;9.95;4.72;;;17.90;68.30;;;;;;5041565;28;20029;-63
2022/05/04 07:19:38;;;;;;;10.93;4.80;;;17.90;68.60;;;;;;5043583;28;20033;-63
2022/05/04 07:22:04;;;;;;;11.77;4.97;;;17.90;68.60;;;;;;5049827;28;20157;-63
2022/05/04 07:24:29;;;;;;;9.60;4.65;;;17.90;68.60;;;;;;5045539;28;20017;-62
2022/05/04 07:26:55;;;;;;;11.30;5.03;;;17.90;68.40;;;;;;5043518;28;20613;-63
2022/05/04 07:29:21;;;;;;;10.77;4.75;;;17.90;68.60;;;;;;5041116;28;20117;-63
2022/05/04 07:31:46;;;;;;;11.85;5.20;;;17.80;68.60;;;;;;5042764;28;20053;-63
2022/05/04 07:34:17;;;;;;;10.07;5.03;;;17.80;68.50;;;;;;5035411;28;20037;-63
2022/05/04 07:36:43;;;;;;;10.15;4.72;;;17.90;68.50;;;;;;5037435;28;20032;-63
2022/05/04 07:39:08;;;;;;;10.77;4.53;;;17.90;68.50;;;;;;5037290;28;20036;-62
2022/05/04 07:44:18;;;;;;;9.43;4.65;;;17.80;68.60;;;;;;5032842;28;20092;-63
2022/05/04 07:46:45;;;;;;;11.48;4.93;;;17.80;68.70;;;;;;5040196;28;20053;-63
2022/05/04 07:49:11;;;;;;;10.70;4.47;;;17.80;68.50;;;;;;5047047;28;20115;-62
2022/05/04 07:51:36;;;;;;;10.93;5.00;;;17.80;68.70;;;;;;5039153;28;20462;-63
2022/05/04 07:54:02;;;;;;;11.27;5.25;;;17.80;68.70;;;;;;5036364;28;20030;-63
2022/05/04 07:56:28;;;;;;;10.40;5.25;;;17.80;68.70;;;;;;5043238;28;20025;-63
2022/05/04 07:58:53;;;;;;;8.88;4.60;;;17.80;68.80;;;;;;5041727;28;20208;-63
2022/05/04 08:04:20;;;;;;;9.40;4.50;;;17.80;68.40;;;;;;5052668;28;20027;-63
2022/05/04 08:06:46;;;;;;;9.80;4.90;;;17.80;68.50;;;;;;5038451;28;20464;-63
2022/05/04 08:09:12;;;;;;;10.32;4.72;;;17.80;68.30;;;;;;5037601;28;20035;-63
2022/05/04 08:11:37;;;;;;;8.73;4.68;;;17.80;68.00;;;;;;5037958;28;20099;-63
2022/05/04 08:14:03;;;;;;;9.55;5.03;;;17.90;68.40;;;;;;5051943;28;20035;-63
2022/05/04 08:16:29;;;;;;;9.57;5.07;;;17.90;68.30;;;;;;5044951;28;20461;-62
2022/05/04 08:18:54;;;;;;;8.80;4.68;;;17.90;68.20;;;;;;5038768;28;20087;-63
2022/05/04 08:21:20;;;;;;;9.63;5.00;;;17.90;68.30;;;;;;5041030;28;20020;-63
2022/05/04 08:23:46;;;;;;;9.20;4.75;;;17.90;68.30;;;;;;5040871;28;20075;-63
2022/05/04 08:26:12;;;;;;;9.23;4.75;;;17.90;68.00;;;;;;5042303;28;20033;-62
2022/05/04 08:28:38;;;;;;;8.85;4.70;;;17.90;68.10;;;;;;5038913;28;20041;-63
2022/05/04 08:31:05;;;;;;;10.32;5.00;;;17.90;68.00;;;;;;5044122;28;20116;-63
2022/05/04 08:33:31;;;;;;;10.93;5.28;;;17.90;68.10;;;;;;5039075;28;20453;-63
2022/05/04 08:35:56;;;;;;;10.57;5.32;;;17.90;68.00;;;;;;5039355;28;20111;-63
2022/05/04 08:38:22;;;;;;;10.63;5.35;;;17.90;68.10;;;;;;5039264;28;20068;-63
2022/05/04 08:40:49;;;;;;;9.52;4.90;;;17.90;68.00;;;;;;5036251;28;20063;-63
2022/05/04 08:43:15;;;;;;;10.15;4.85;;;17.90;67.90;;;;;;5040032;28;20401;-63
2022/05/04 08:45:41;;;;;;;9.80;4.68;;;18.00;68.00;;;;;;5046743;28;20111;-63
2022/05/04 08:48:10;;;;;;;8.77;4.65;;;18.00;68.10;;;;;;5050546;28;20119;-63
2022/05/04 08:50:39;;;;;;;9.15;4.68;;;18.00;67.90;;;;;;5030136;28;20021;-63
2022/05/04 08:53:05;;;;;;;9.77;5.38;;;18.00;67.90;;;;;;5045829;28;20036;-63
2022/05/04 08:55:30;;;;;;;8.68;4.60;;;18.00;67.80;;;;;;5039024;28;20017;-64
2022/05/04 08:57:56;;;;;;;9.65;5.15;;;18.00;67.80;;;;;;5042031;28;20028;-63
2022/05/04 09:00:22;;;;;;;8.98;4.43;;;18.00;67.70;;;;;;5036238;28;20025;-63
2022/05/04 09:02:48;;;;;;;9.25;4.53;;;18.00;67.70;;;;;;5032663;28;20040;-63
2022/05/04 09:05:24;;;;;;;10.40;4.97;;;18.00;67.60;;;;;;5036702;28;20037;-63
2022/05/04 09:07:51;;;;;;;11.27;4.90;;;18.00;67.60;;;;;;5041637;28;20124;-62
2022/05/04 09:10:18;;;;;;;10.63;4.50;;;18.00;67.50;;;;;;5040169;28;20104;-63
2022/05/04 09:12:44;;;;;;;8.57;4.55;;;18.00;68.50;;;;;;5040772;28;20025;-63
2022/05/04 09:15:23;;;;;;;9.82;4.65;;;18.00;67.50;;;;;;5035270;28;20078;-63
2022/05/04 09:17:56;;;;;;;8.10;4.07;;;18.10;67.50;;;;;;5032192;28;20290;-62
2022/05/04 09:23:33;;;;;;;9.48;4.60;;;18.10;67.40;;;;;;5049733;28;20052;-63
2022/05/04 09:26:00;;;;;;;10.27;4.28;;;18.10;67.30;;;;;;5045482;28;20029;-62
2022/05/04 09:28:26;;;;;;;8.75;4.38;;;18.20;67.30;;;;;;5047491;28;20052;-63
2022/05/04 09:30:54;;;;;;;8.65;4.43;;;18.20;67.20;;;;;;5046970;28;20174;-63
2022/05/04 09:33:26;;;;;;;9.55;4.88;;;18.20;67.10;;;;;;5039231;28;20036;-63
2022/05/04 09:35:52;;;;;;;9.02;4.63;;;18.20;67.00;;;;;;5037266;28;20080;-63
2022/05/04 09:46:45;;;;;;;7.05;3.67;;;18.30;66.80;;;;;;5048568;28;20082;-63
2022/05/04 09:49:14;;;;;;;9.50;4.32;;;18.30;66.80;;;;;;5051568;28;20053;-63
2022/05/04 09:51:41;;;;;;;8.35;4.47;;;18.30;66.70;;;;;;5049775;28;20029;-63
2022/05/04 09:54:17;;;;;;;10.52;4.38;;;18.30;66.70;;;;;;5044875;28;20051;-63
2022/05/04 09:56:59;;;;;;;7.97;4.15;;;18.30;66.70;;;;;;5031259;28;20034;-63
2022/05/04 09:59:26;;;;;;;9.07;4.50;;;18.30;66.60;;;;;;5034869;28;20028;-63
2022/05/04 10:01:53;;;;;;;8.65;4.20;;;18.30;66.40;;;;;;5044407;28;20317;-62
2022/05/04 10:04:20;;;;;;;9.85;4.30;;;18.40;66.40;;;;;;5038850;28;20025;-63
2022/05/04 10:06:47;;;;;;;9.05;4.45;;;18.40;66.30;;;;;;5038773;28;20579;-63
2022/05/04 10:09:13;;;;;;;7.20;3.47;;;18.40;66.30;;;;;;5037746;28;20067;-63
2022/05/04 10:11:39;;;;;;;8.05;4.30;;;18.40;66.30;;;;;;5038267;28;20503;-63
2022/05/04 10:14:09;;;;;;;9.30;4.18;;;18.50;66.30;;;;;;5036471;28;20052;-63
2022/05/04 10:16:41;;;;;;;8.18;4.25;;;18.50;66.20;;;;;;5040020;28;20040;-62
2022/05/04 10:19:12;;;;;;;6.97;3.90;;;18.50;66.20;;;;;;5035418;28;20026;-63
2022/05/04 10:21:37;;;;;;;8.13;4.00;;;18.50;66.10;;;;;;5045642;28;20045;-63
2022/05/04 10:24:07;;;;;;;7.70;3.65;;;18.50;66.10;;;;;;5036365;28;20114;-63
2022/05/04 10:26:34;;;;;;;7.97;4.10;;;18.50;66.10;;;;;;5028909;28;20033;-63
2022/05/04 10:31:54;;;;;;;8.43;4.20;;;18.60;66.00;;;;;;5062978;28;20056;-63
2022/05/04 10:34:19;;;;;;;7.45;3.92;;;18.60;66.00;;;;;;5043492;28;20033;-63
2022/05/04 10:36:46;;;;;;;7.70;4.05;;;18.60;66.00;;;;;;5061188;28;20550;-63
2022/05/04 10:39:11;;;;;;;8.40;4.10;;;18.60;66.00;;;;;;5037186;28;20083;-63
2022/05/04 10:41:38;;;;;;;6.93;3.55;;;18.60;65.90;;;;;;5023882;28;20026;-63
2022/05/04 10:44:09;;;;;;;6.60;3.50;;;18.60;65.90;;;;;;5032795;28;20029;-63
2022/05/04 10:46:36;;;;;;;8.55;4.25;;;18.60;65.90;;;;;;5034723;28;20466;-62
2022/05/04 10:49:04;;;;;;;8.52;4.22;;;18.60;65.80;;;;;;5069101;28;20041;-63
2022/05/04 10:51:30;;;;;;;7.75;4.05;;;18.70;65.90;;;;;;5039026;28;20052;-63
2022/05/04 10:54:09;;;;;;;6.70;3.50;;;18.70;65.80;;;;;;5040058;28;20036;-63
2022/05/04 10:56:45;;;;;;;7.40;3.47;;;18.70;65.80;;;;;;5045936;28;20029;-63
2022/05/04 10:59:11;;;;;;;6.90;3.40;;;18.70;65.80;;;;;;5044520;28;20502;-62
2022/05/04 11:01:40;;;;;;;7.88;3.80;;;18.70;65.70;;;;;;5038123;28;20025;-63
2022/05/04 11:04:15;;;;;;;7.68;3.70;;;18.70;65.70;;;;;;5044010;28;20075;-63
2022/05/04 11:06:41;;;;;;;7.05;3.58;;;18.70;65.60;;;;;;5050883;28;20025;-63
2022/05/04 11:09:08;;;;;;;7.07;3.55;;;18.80;65.60;;;;;;5045489;28;20508;-63
2022/05/04 11:11:34;;;;;;;7.10;3.67;;;18.80;65.70;;;;;;5049792;28;20053;-63
2022/05/04 11:14:00;;;;;;;7.10;3.80;;;18.80;65.60;;;;;;5049261;28;20072;-63
2022/05/04 11:16:28;;;;;;;7.35;3.63;;;18.80;65.50;;;;;;5045117;28;20057;-63
2022/05/04 11:18:53;;;;;;;6.60;3.80;;;18.80;65.50;;;;;;5044667;28;20040;-63
2022/05/04 11:21:19;;;;;;;7.72;3.65;;;18.90;65.50;;;;;;5033646;28;20025;-63
2022/05/04 11:23:56;;;;;;;7.05;3.92;;;18.90;65.50;;;;;;5035122;28;20030;-63
2022/05/04 11:26:38;;;;;;;8.65;3.78;;;18.90;65.40;;;;;;5039443;28;20030;-63
2022/05/04 11:29:16;;;;;;;6.50;3.50;;;18.90;65.40;;;;;;5039841;28;20064;-63
2022/05/04 11:31:54;;;;;;;6.63;3.75;;;18.90;65.30;;;;;;5043120;28;20027;-63
2022/05/04 11:34:24;;;;;;;7.40;3.90;;;19.00;65.40;;;;;;5046198;28;20025;-63
2022/05/04 11:36:51;;;;;;;7.93;3.40;;;19.00;65.30;;;;;;5046234;28;20024;-63
2022/05/04 11:39:18;;;;;;;7.88;3.60;;;19.00;65.20;;;;;;5037741;28;20400;-63
2022/05/04 11:41:47;;;;;;;6.50;3.50;;;19.00;65.20;;;;;;5037716;28;20032;-63
2022/05/04 11:44:13;;;;;;;7.15;3.65;;;19.00;65.20;;;;;;5034663;28;20029;-63
2022/05/04 11:46:42;;;;;;;7.38;3.90;;;19.00;65.10;;;;;;5036444;28;20421;-63
2022/05/04 11:49:08;;;;;;;7.18;3.30;;;19.10;65.10;;;;;;5039922;28;20037;-64
2022/05/04 11:51:34;;;;;;;7.03;3.40;;;19.10;65.10;;;;;;5040354;28;20030;-63
2022/05/04 11:54:00;;;;;;;6.82;3.22;;;19.10;65.00;;;;;;5033176;28;20033;-63
2022/05/04 11:56:26;;;;;;;6.55;3.15;;;19.10;65.00;;;;;;5063158;28;20025;-63
2022/05/04 11:58:52;;;;;;;7.40;3.55;;;19.20;65.00;;;;;;5040317;28;20026;-63
2022/05/04 12:01:18;;;;;;;7.22;3.30;;;19.20;65.00;;;;;;5041319;28;20537;-63
2022/05/04 12:03:43;;;;;;;6.63;3.40;;;19.20;64.90;;;;;;5038381;28;20025;-63
2022/05/04 12:06:10;;;;;;;6.22;3.33;;;19.20;64.90;;;;;;5038980;28;20046;-63
2022/05/04 12:08:37;;;;;;;5.75;3.13;;;19.20;64.80;;;;;;5066371;28;20037;-63
2022/05/04 12:11:04;;;;;;;6.63;3.20;;;19.30;64.80;;;;;;5043447;28;20112;-63
2022/05/04 12:13:30;;;;;;;6.80;3.38;;;19.30;64.70;;;;;;5047538;28;20029;-63
2022/05/04 12:15:59;;;;;;;6.05;3.10;;;19.30;64.70;;;;;;5043506;28;20452;-63
2022/05/04 12:18:29;;;;;;;8.07;3.47;;;19.30;64.60;;;;;;5040826;28;20045;-63
2022/05/04 12:20:55;;;;;;;5.90;3.00;;;19.40;64.70;;;;;;5035376;28;20029;-63
2022/05/04 12:23:24;;;;;;;7.03;3.15;;;19.40;64.60;;;;;;5047732;28;20040;-63
2022/05/04 12:25:50;;;;;;;6.82;3.10;;;19.40;64.60;;;;;;5044870;28;20029;-62
2022/05/04 12:28:16;;;;;;;6.93;3.30;;;19.40;64.30;;;;;;5046044;28;20052;-63
2022/05/04 12:33:32;;;;;;;7.55;3.20;;;19.40;64.10;;;;;;5041535;28;20035;-63
2022/05/04 12:36:04;;;;;;;7.40;3.33;;;19.40;63.60;;;;;;5043144;28;20083;-63
2022/05/04 12:38:31;;;;;;;7.25;3.60;;;19.40;62.80;;;;;;5044005;28;20031;-63
2022/05/04 12:40:56;;;;;;;7.80;3.35;;;19.40;62.90;;;;;;5044311;28;20049;-63
2022/05/04 12:43:22;;;;;;;7.22;3.55;;;19.40;62.30;;;;;;5047468;28;20489;-63
2022/05/04 12:45:47;;;;;;;5.70;2.90;;;19.40;61.90;;;;;;5036993;28;20065;-63
2022/05/04 12:48:13;;;;;;;5.68;3.20;;;19.40;61.40;;;;;;5037631;28;20041;-63
2022/05/04 12:50:39;;;;;;;7.07;2.80;;;19.40;61.10;;;;;;5033612;28;20021;-63
2022/05/04 12:53:05;;;;;;;6.45;2.83;;;19.40;61.10;;;;;;5043127;28;20033;-63
2022/05/04 12:58:15;;;;;;;6.00;2.90;;;19.60;60.80;;;;;;5041419;28;20079;-63
2022/05/04 13:00:41;;;;;;;6.28;2.90;;;19.60;60.90;;;;;;5036682;28;20020;-63
2022/05/04 13:03:09;;;;;;;7.20;3.10;;;19.60;60.90;;;;;;5038131;28;20037;-63
2022/05/04 13:05:34;;;;;;;5.15;2.90;;;19.70;61.10;;;;;;5036458;28;20041;-63
2022/05/04 13:08:00;;;;;;;8.80;2.90;;;19.70;61.10;;;;;;5043235;28;20049;-63
2022/05/04 13:10:26;;;;;;;5.55;3.30;;;19.80;61.10;;;;;;5050862;28;20116;-63
2022/05/04 13:12:51;;;;;;;4.43;2.72;;;19.80;61.20;;;;;;5042451;28;20051;-63
2022/05/04 13:15:17;;;;;;;7.28;3.00;;;19.80;61.20;;;;;;5037739;28;20031;-63
2022/05/04 13:17:43;;;;;;;7.20;2.85;;;19.90;61.30;;;;;;5037823;28;20458;-63
2022/05/04 13:20:09;;;;;;;5.72;2.95;;;19.90;61.20;;;;;;5036583;28;20296;-63
2022/05/04 13:22:36;;;;;;;5.22;3.15;;;19.90;61.20;;;;;;5040727;28;20029;-63